sensor_id;sensor_type;location;lat;lon;timestamp;temperature;humidity
20654;DHT22;21083;50.898;4.902;2024-01-10T00:01:01;-2.70;99.90
20654;DHT22;21083;50.898;4.902;2024-01-10T00:03:28;-2.80;99.90
20654;DHT22;21083;50.898;4.902;2024-01-10T00:05:55;-2.80;99.90
20654;DHT22;21083;50.898;4.902;2024-01-10T00:08:22;-2.90;99.90
20654;DHT22;21083;50.898;4.902;2024-01-10T00:10:51;-2.80;99.90
20654;DHT22;21083;50.898;4.902;2024-01-10T00:13:19;-2.80;99.90
20654;DHT22;21083;50.898;4.902;2024-01-10T00:15:47;-2.90;99.90
20654;DHT22;21083;50.898;4.902;2024-01-10T00:18:14;-2.80;99.90
20654;DHT22;21083;50.898;4.902;2024-01-10T00:20:41;-2.90;99.90
20654;DHT22;21083;50.898;4.902;2024-01-10T00:23:08;-2.80;99.90
20654;DHT22;21083;50.898;4.902;2024-01-10T00:25:35;-2.90;99.90
20654;DHT22;21083;50.898;4.902;2024-01-10T00:28:04;-2.90;99.90
20654;DHT22;21083;50.898;4.902;2024-01-10T00:30:31;-3.00;99.90
20654;DHT22;21083;50.898;4.902;2024-01-10T00:32:58;-3.00;99.90
20654;DHT22;21083;50.898;4.902;2024-01-10T00:35:25;-3.10;99.90
20654;DHT22;21083;50.898;4.902;2024-01-10T00:37:52;-3.10;99.90
20654;DHT22;21083;50.898;4.902;2024-01-10T00:40:19;-3.10;99.90
20654;DHT22;21083;50.898;4.902;2024-01-10T00:42:46;-3.00;99.90
20654;DHT22;21083;50.898;4.902;2024-01-10T00:45:16;-3.10;99.90
20654;DHT22;21083;50.898;4.902;2024-01-10T00:47:43;-3.10;99.90
20654;DHT22;21083;50.898;4.902;2024-01-10T00:50:10;-3.10;99.90
20654;DHT22;21083;50.898;4.902;2024-01-10T00:52:37;-3.10;99.90
20654;DHT22;21083;50.898;4.902;2024-01-10T00:55:04;-3.10;99.90
20654;DHT22;21083;50.898;4.902;2024-01-10T00:57:31;-3.10;99.90
20654;DHT22;21083;50.898;4.902;2024-01-10T00:59:58;-3.20;99.90
20654;DHT22;21083;50.898;4.902;2024-01-10T01:02:27;-3.20;99.90
20654;DHT22;21083;50.898;4.902;2024-01-10T01:04:54;-3.20;99.90
20654;DHT22;21083;50.898;4.902;2024-01-10T01:07:21;-3.20;99.90
20654;DHT22;21083;50.898;4.902;2024-01-10T01:09:48;-3.20;99.90
20654;DHT22;21083;50.898;4.902;2024-01-10T01:12:15;-3.30;99.90
20654;DHT22;21083;50.898;4.902;2024-01-10T01:14:42;-3.30;99.90
20654;DHT22;21083;50.898;4.902;2024-01-10T01:17:09;-3.30;99.90
20654;DHT22;21083;50.898;4.902;2024-01-10T01:19:37;-3.30;99.90
20654;DHT22;21083;50.898;4.902;2024-01-10T01:22:04;-3.30;99.90
20654;DHT22;21083;50.898;4.902;2024-01-10T01:24:31;-3.30;99.90
20654;DHT22;21083;50.898;4.902;2024-01-10T01:26:58;-3.30;99.90
20654;DHT22;21083;50.898;4.902;2024-01-10T01:29:25;-3.30;99.90
20654;DHT22;21083;50.898;4.902;2024-01-10T01:31:54;-3.40;99.90
20654;DHT22;21083;50.898;4.902;2024-01-10T01:34:21;-3.40;99.90
20654;DHT22;21083;50.898;4.902;2024-01-10T01:36:50;-3.40;99.90
20654;DHT22;21083;50.898;4.902;2024-01-10T01:39:17;-3.50;99.90
20654;DHT22;21083;50.898;4.902;2024-01-10T01:41:44;-3.50;99.90
20654;DHT22;21083;50.898;4.902;2024-01-10T01:44:11;-3.50;99.90
20654;DHT22;21083;50.898;4.902;2024-01-10T01:46:38;-3.50;99.90
20654;DHT22;21083;50.898;4.902;2024-01-10T01:49:06;-3.60;99.90
20654;DHT22;21083;50.898;4.902;2024-01-10T01:51:34;-3.60;99.90
20654;DHT22;21083;50.898;4.902;2024-01-10T01:54:07;-3.60;99.90
20654;DHT22;21083;50.898;4.902;2024-01-10T01:56:35;-3.60;99.90
20654;DHT22;21083;50.898;4.902;2024-01-10T01:59:03;-3.70;99.90
20654;DHT22;21083;50.898;4.902;2024-01-10T02:01:31;-3.70;99.90
20654;DHT22;21083;50.898;4.902;2024-01-10T02:03:59;-3.70;99.90
20654;DHT22;21083;50.898;4.902;2024-01-10T02:06:27;-3.70;99.90
20654;DHT22;21083;50.898;4.902;2024-01-10T02:08:55;-3.70;99.90
20654;DHT22;21083;50.898;4.902;2024-01-10T02:11:24;-3.80;99.90
20654;DHT22;21083;50.898;4.902;2024-01-10T02:13:51;-3.80;99.90
20654;DHT22;21083;50.898;4.902;2024-01-10T02:16:20;-3.80;99.90
20654;DHT22;21083;50.898;4.902;2024-01-10T02:18:48;-3.90;99.90
20654;DHT22;21083;50.898;4.902;2024-01-10T02:21:16;-3.90;99.90
20654;DHT22;21083;50.898;4.902;2024-01-10T02:23:43;-3.90;99.90
20654;DHT22;21083;50.898;4.902;2024-01-10T02:26:11;-3.90;99.90
20654;DHT22;21083;50.898;4.902;2024-01-10T02:28:38;-3.90;99.90
20654;DHT22;21083;50.898;4.902;2024-01-10T02:31:05;-3.90;99.90
20654;DHT22;21083;50.898;4.902;2024-01-10T02:33:32;-3.90;99.90
20654;DHT22;21083;50.898;4.902;2024-01-10T02:35:59;-4.00;99.90
20654;DHT22;21083;50.898;4.902;2024-01-10T02:38:27;-4.10;99.90
20654;DHT22;21083;50.898;4.902;2024-01-10T02:40:54;-4.10;99.90
20654;DHT22;21083;50.898;4.902;2024-01-10T02:43:23;-4.00;99.90
20654;DHT22;21083;50.898;4.902;2024-01-10T02:45:50;-4.00;99.90
20654;DHT22;21083;50.898;4.902;2024-01-10T02:48:17;-4.10;99.90
20654;DHT22;21083;50.898;4.902;2024-01-10T02:50:44;-4.10;99.90
20654;DHT22;21083;50.898;4.902;2024-01-10T02:53:11;-4.10;99.90
20654;DHT22;21083;50.898;4.902;2024-01-10T02:55:37;-4.10;99.90
20654;DHT22;21083;50.898;4.902;2024-01-10T02:58:05;-4.20;99.90
20654;DHT22;21083;50.898;4.902;2024-01-10T03:00:33;-4.20;99.90
20654;DHT22;21083;50.898;4.902;2024-01-10T03:03:00;-4.20;99.90
20654;DHT22;21083;50.898;4.902;2024-01-10T03:05:27;-4.20;99.90
20654;DHT22;21083;50.898;4.902;2024-01-10T03:07:54;-4.20;99.90
20654;DHT22;21083;50.898;4.902;2024-01-10T03:10:21;-4.20;99.90
20654;DHT22;21083;50.898;4.902;2024-01-10T03:12:48;-4.20;99.90
20654;DHT22;21083;50.898;4.902;2024-01-10T03:15:15;-4.20;99.90
20654;DHT22;21083;50.898;4.902;2024-01-10T03:17:43;-4.10;99.90
20654;DHT22;21083;50.898;4.902;2024-01-10T03:20:11;-4.20;99.90
20654;DHT22;21083;50.898;4.902;2024-01-10T03:22:37;-4.20;99.90
20654;DHT22;21083;50.898;4.902;2024-01-10T03:25:05;-4.20;99.90
20654;DHT22;21083;50.898;4.902;2024-01-10T03:27:32;-4.20;99.90
20654;DHT22;21083;50.898;4.902;2024-01-10T03:29:59;-4.30;99.90
20654;DHT22;21083;50.898;4.902;2024-01-10T03:32:26;-4.30;99.90
20654;DHT22;21083;50.898;4.902;2024-01-10T03:34:54;-4.30;99.90
20654;DHT22;21083;50.898;4.902;2024-01-10T03:37:21;-4.30;99.90
20654;DHT22;21083;50.898;4.902;2024-01-10T03:39:48;-4.20;99.90
20654;DHT22;21083;50.898;4.902;2024-01-10T03:42:15;-4.30;99.90
20654;DHT22;21083;50.898;4.902;2024-01-10T03:44:42;-4.30;99.90
20654;DHT22;21083;50.898;4.902;2024-01-10T03:47:09;-4.30;99.90
20654;DHT22;21083;50.898;4.902;2024-01-10T03:49:36;-4.30;99.90
20654;DHT22;21083;50.898;4.902;2024-01-10T03:52:05;-4.30;99.90
20654;DHT22;21083;50.898;4.902;2024-01-10T03:54:32;-4.40;99.90
20654;DHT22;21083;50.898;4.902;2024-01-10T03:56:59;-4.40;99.90
20654;DHT22;21083;50.898;4.902;2024-01-10T03:59:26;-4.40;99.90
20654;DHT22;21083;50.898;4.902;2024-01-10T04:01:53;-4.40;99.90
20654;DHT22;21083;50.898;4.902;2024-01-10T04:04:20;-4.40;99.90
20654;DHT22;21083;50.898;4.902;2024-01-10T04:06:48;-4.40;99.90
20654;DHT22;21083;50.898;4.902;2024-01-10T04:09:16;-4.40;99.90
20654;DHT22;21083;50.898;4.902;2024-01-10T04:11:43;-4.40;99.90
20654;DHT22;21083;50.898;4.902;2024-01-10T04:14:10;-4.40;99.90
20654;DHT22;21083;50.898;4.902;2024-01-10T04:16:37;-4.50;99.90
20654;DHT22;21083;50.898;4.902;2024-01-10T04:19:04;-4.50;99.90
20654;DHT22;21083;50.898;4.902;2024-01-10T04:21:31;-4.50;99.90
20654;DHT22;21083;50.898;4.902;2024-01-10T04:23:58;-4.50;99.90
20654;DHT22;21083;50.898;4.902;2024-01-10T04:26:27;-4.40;99.90
20654;DHT22;21083;50.898;4.902;2024-01-10T04:28:53;-4.40;99.90
20654;DHT22;21083;50.898;4.902;2024-01-10T04:31:21;-4.40;99.90
20654;DHT22;21083;50.898;4.902;2024-01-10T04:33:47;-4.40;99.90
20654;DHT22;21083;50.898;4.902;2024-01-10T04:36:14;-4.40;99.90
20654;DHT22;21083;50.898;4.902;2024-01-10T04:38:41;-4.40;99.90
20654;DHT22;21083;50.898;4.902;2024-01-10T04:41:08;-4.40;99.90
20654;DHT22;21083;50.898;4.902;2024-01-10T04:43:37;-4.40;99.90
20654;DHT22;21083;50.898;4.902;2024-01-10T04:46:04;-4.40;99.90
20654;DHT22;21083;50.898;4.902;2024-01-10T04:48:31;-4.30;99.90
20654;DHT22;21083;50.898;4.902;2024-01-10T04:50:58;-4.30;99.90
20654;DHT22;21083;50.898;4.902;2024-01-10T04:53:25;-4.30;99.90
20654;DHT22;21083;50.898;4.902;2024-01-10T04:55:52;-4.30;99.90
20654;DHT22;21083;50.898;4.902;2024-01-10T04:58:19;-4.30;99.90
20654;DHT22;21083;50.898;4.902;2024-01-10T05:00:47;-4.20;99.90
20654;DHT22;21083;50.898;4.902;2024-01-10T05:03:14;-4.30;99.90
20654;DHT22;21083;50.898;4.902;2024-01-10T05:05:41;-4.30;99.90
20654;DHT22;21083;50.898;4.902;2024-01-10T05:08:08;-4.30;99.90
20654;DHT22;21083;50.898;4.902;2024-01-10T05:10:35;-4.20;99.90
20654;DHT22;21083;50.898;4.902;2024-01-10T05:13:02;-4.20;99.90
20654;DHT22;21083;50.898;4.902;2024-01-10T05:15:29;-4.10;99.90
20654;DHT22;21083;50.898;4.902;2024-01-10T05:17:57;-4.10;99.90
20654;DHT22;21083;50.898;4.902;2024-01-10T05:20:24;-4.10;99.90
20654;DHT22;21083;50.898;4.902;2024-01-10T05:22:51;-4.20;99.90
20654;DHT22;21083;50.898;4.902;2024-01-10T05:25:18;-4.20;99.90
20654;DHT22;21083;50.898;4.902;2024-01-10T05:27:45;-4.20;99.90
20654;DHT22;21083;50.898;4.902;2024-01-10T05:30:12;-4.20;99.90
20654;DHT22;21083;50.898;4.902;2024-01-10T05:32:39;-4.10;99.90
20654;DHT22;21083;50.898;4.902;2024-01-10T05:35:09;-4.20;99.90
20654;DHT22;21083;50.898;4.902;2024-01-10T05:37:36;-4.10;99.90
20654;DHT22;21083;50.898;4.902;2024-01-10T05:40:04;-4.10;99.90
20654;DHT22;21083;50.898;4.902;2024-01-10T05:42:32;-4.10;99.90
20654;DHT22;21083;50.898;4.902;2024-01-10T05:44:59;-4.10;99.90
20654;DHT22;21083;50.898;4.902;2024-01-10T05:47:27;-4.10;99.90
20654;DHT22;21083;50.898;4.902;2024-01-10T05:49:54;-4.10;99.90
20654;DHT22;21083;50.898;4.902;2024-01-10T05:52:23;-4.10;99.90
20654;DHT22;21083;50.898;4.902;2024-01-10T05:54:50;-4.10;99.90
20654;DHT22;21083;50.898;4.902;2024-01-10T05:57:17;-4.20;99.90
20654;DHT22;21083;50.898;4.902;2024-01-10T05:59:44;-4.10;99.90
20654;DHT22;21083;50.898;4.902;2024-01-10T06:02:11;-4.10;99.90
20654;DHT22;21083;50.898;4.902;2024-01-10T06:04:42;-4.10;99.90
20654;DHT22;21083;50.898;4.902;2024-01-10T06:07:09;-4.20;99.90
20654;DHT22;21083;50.898;4.902;2024-01-10T06:09:37;-4.10;99.90
20654;DHT22;21083;50.898;4.902;2024-01-10T06:12:06;-4.00;99.90
20654;DHT22;21083;50.898;4.902;2024-01-10T06:14:33;-4.00;99.90
20654;DHT22;21083;50.898;4.902;2024-01-10T06:17:00;-3.90;99.90
20654;DHT22;21083;50.898;4.902;2024-01-10T06:19:29;-4.00;99.90
20654;DHT22;21083;50.898;4.902;2024-01-10T06:21:56;-3.90;99.90
20654;DHT22;21083;50.898;4.902;2024-01-10T06:24:23;-4.00;99.90
20654;DHT22;21083;50.898;4.902;2024-01-10T06:26:52;-4.00;99.90
20654;DHT22;21083;50.898;4.902;2024-01-10T06:29:19;-4.00;99.90
20654;DHT22;21083;50.898;4.902;2024-01-10T06:31:46;-4.00;99.90
20654;DHT22;21083;50.898;4.902;2024-01-10T06:34:14;-4.00;99.90
20654;DHT22;21083;50.898;4.902;2024-01-10T06:36:41;-4.00;99.90
20654;DHT22;21083;50.898;4.902;2024-01-10T06:39:09;-3.90;99.90
20654;DHT22;21083;50.898;4.902;2024-01-10T06:41:38;-4.00;99.90
20654;DHT22;21083;50.898;4.902;2024-01-10T06:44:06;-3.90;99.90
20654;DHT22;21083;50.898;4.902;2024-01-10T06:46:33;-4.00;99.90
20654;DHT22;21083;50.898;4.902;2024-01-10T06:49:01;-3.90;99.90
20654;DHT22;21083;50.898;4.902;2024-01-10T06:51:28;-3.90;99.90
20654;DHT22;21083;50.898;4.902;2024-01-10T06:53:55;-4.00;99.90
20654;DHT22;21083;50.898;4.902;2024-01-10T06:56:29;-4.10;99.90
20654;DHT22;21083;50.898;4.902;2024-01-10T06:58:56;-4.10;99.90
20654;DHT22;21083;50.898;4.902;2024-01-10T07:01:25;-4.20;99.90
20654;DHT22;21083;50.898;4.902;2024-01-10T07:03:52;-4.20;99.90
20654;DHT22;21083;50.898;4.902;2024-01-10T07:06:20;-4.20;99.90
20654;DHT22;21083;50.898;4.902;2024-01-10T07:08:48;-4.20;99.90
20654;DHT22;21083;50.898;4.902;2024-01-10T07:11:15;-4.10;99.90
20654;DHT22;21083;50.898;4.902;2024-01-10T07:13:42;-4.20;99.90
20654;DHT22;21083;50.898;4.902;2024-01-10T07:16:10;-4.20;99.90
20654;DHT22;21083;50.898;4.902;2024-01-10T07:18:38;-4.10;99.90
20654;DHT22;21083;50.898;4.902;2024-01-10T07:21:06;-4.10;99.90
20654;DHT22;21083;50.898;4.902;2024-01-10T07:23:34;-4.10;99.90
20654;DHT22;21083;50.898;4.902;2024-01-10T07:26:04;-4.10;99.90
20654;DHT22;21083;50.898;4.902;2024-01-10T07:28:31;-4.10;99.90
20654;DHT22;21083;50.898;4.902;2024-01-10T07:30:58;-4.20;99.90
20654;DHT22;21083;50.898;4.902;2024-01-10T07:33:26;-4.10;99.90
20654;DHT22;21083;50.898;4.902;2024-01-10T07:35:54;-4.10;99.90
20654;DHT22;21083;50.898;4.902;2024-01-10T07:38:21;-4.10;99.90
20654;DHT22;21083;50.898;4.902;2024-01-10T07:40:48;-4.10;99.90
20654;DHT22;21083;50.898;4.902;2024-01-10T07:43:15;-4.00;99.90
20654;DHT22;21083;50.898;4.902;2024-01-10T07:45:42;-3.90;99.90
20654;DHT22;21083;50.898;4.902;2024-01-10T07:48:09;-4.00;99.90
20654;DHT22;21083;50.898;4.902;2024-01-10T07:50:36;-4.00;99.90
20654;DHT22;21083;50.898;4.902;2024-01-10T07:53:05;-4.00;99.90
20654;DHT22;21083;50.898;4.902;2024-01-10T07:55:33;-4.10;99.90
20654;DHT22;21083;50.898;4.902;2024-01-10T07:58:00;-4.00;99.90
20654;DHT22;21083;50.898;4.902;2024-01-10T08:00:27;-3.90;99.90
20654;DHT22;21083;50.898;4.902;2024-01-10T08:02:55;-4.00;99.90
20654;DHT22;21083;50.898;4.902;2024-01-10T08:05:23;-4.00;99.90
20654;DHT22;21083;50.898;4.902;2024-01-10T08:07:50;-4.00;99.90
20654;DHT22;21083;50.898;4.902;2024-01-10T08:10:19;-4.00;99.90
20654;DHT22;21083;50.898;4.902;2024-01-10T08:12:46;-4.00;99.90
20654;DHT22;21083;50.898;4.902;2024-01-10T08:15:13;-4.10;99.90
20654;DHT22;21083;50.898;4.902;2024-01-10T08:17:41;-4.00;99.90
20654;DHT22;21083;50.898;4.902;2024-01-10T08:20:09;-3.90;99.90
20654;DHT22;21083;50.898;4.902;2024-01-10T08:22:36;-3.80;99.90
20654;DHT22;21083;50.898;4.902;2024-01-10T08:25:04;-3.80;99.90
20654;DHT22;21083;50.898;4.902;2024-01-10T08:30:53;-3.70;99.90
20654;DHT22;21083;50.898;4.902;2024-01-10T08:33:20;-3.70;99.90
20654;DHT22;21083;50.898;4.902;2024-01-10T08:35:47;-3.70;99.90
20654;DHT22;21083;50.898;4.902;2024-01-10T08:38:15;-3.70;99.90
20654;DHT22;21083;50.898;4.902;2024-01-10T08:40:42;-3.70;99.90
20654;DHT22;21083;50.898;4.902;2024-01-10T08:43:09;-3.60;99.90
20654;DHT22;21083;50.898;4.902;2024-01-10T08:45:36;-3.50;99.90
20654;DHT22;21083;50.898;4.902;2024-01-10T08:48:05;-3.60;99.90
20654;DHT22;21083;50.898;4.902;2024-01-10T08:50:33;-3.50;99.90
20654;DHT22;21083;50.898;4.902;2024-01-10T08:53:00;-3.50;99.90
20654;DHT22;21083;50.898;4.902;2024-01-10T08:55:29;-3.40;99.90
20654;DHT22;21083;50.898;4.902;2024-01-10T08:57:56;-3.30;99.90
20654;DHT22;21083;50.898;4.902;2024-01-10T09:00:23;-3.20;99.90
20654;DHT22;21083;50.898;4.902;2024-01-10T09:02:51;-3.20;99.90
20654;DHT22;21083;50.898;4.902;2024-01-10T09:05:20;-3.10;99.90
20654;DHT22;21083;50.898;4.902;2024-01-10T09:07:48;-3.10;99.90
20654;DHT22;21083;50.898;4.902;2024-01-10T09:10:15;-3.00;99.90
20654;DHT22;21083;50.898;4.902;2024-01-10T09:12:42;-3.00;99.90
20654;DHT22;21083;50.898;4.902;2024-01-10T09:15:12;-2.90;99.90
20654;DHT22;21083;50.898;4.902;2024-01-10T09:17:40;-2.80;99.90
20654;DHT22;21083;50.898;4.902;2024-01-10T09:20:08;-2.70;99.90
20654;DHT22;21083;50.898;4.902;2024-01-10T09:22:37;-2.60;99.90
20654;DHT22;21083;50.898;4.902;2024-01-10T09:25:04;-2.60;99.90
20654;DHT22;21083;50.898;4.902;2024-01-10T09:27:33;-2.50;99.90
20654;DHT22;21083;50.898;4.902;2024-01-10T09:30:00;-2.40;99.90
20654;DHT22;21083;50.898;4.902;2024-01-10T09:32:28;-2.30;99.90
20654;DHT22;21083;50.898;4.902;2024-01-10T09:34:55;-2.20;99.90
20654;DHT22;21083;50.898;4.902;2024-01-10T09:37:22;-2.20;99.90
20654;DHT22;21083;50.898;4.902;2024-01-10T09:39:50;-2.00;99.90
20654;DHT22;21083;50.898;4.902;2024-01-10T09:42:18;-1.90;99.90
20654;DHT22;21083;50.898;4.902;2024-01-10T09:44:47;-1.90;99.90
20654;DHT22;21083;50.898;4.902;2024-01-10T09:47:15;-1.80;99.90
20654;DHT22;21083;50.898;4.902;2024-01-10T09:49:43;-1.70;99.90
20654;DHT22;21083;50.898;4.902;2024-01-10T09:52:16;-1.60;99.90
20654;DHT22;21083;50.898;4.902;2024-01-10T09:54:46;-1.50;99.90
20654;DHT22;21083;50.898;4.902;2024-01-10T09:57:15;-1.40;99.90
20654;DHT22;21083;50.898;4.902;2024-01-10T09:59:42;-1.40;99.90
20654;DHT22;21083;50.898;4.902;2024-01-10T10:02:13;-1.40;99.90
20654;DHT22;21083;50.898;4.902;2024-01-10T10:04:46;-1.30;99.90
20654;DHT22;21083;50.898;4.902;2024-01-10T10:07:16;-1.30;99.90
20654;DHT22;21083;50.898;4.902;2024-01-10T10:09:43;-1.20;99.90
20654;DHT22;21083;50.898;4.902;2024-01-10T10:12:10;-1.10;99.90
20654;DHT22;21083;50.898;4.902;2024-01-10T10:14:38;-1.00;99.90
20654;DHT22;21083;50.898;4.902;2024-01-10T10:17:15;-0.90;99.90
20654;DHT22;21083;50.898;4.902;2024-01-10T10:19:43;-0.60;99.90
20654;DHT22;21083;50.898;4.902;2024-01-10T10:22:11;-0.40;99.90
20654;DHT22;21083;50.898;4.902;2024-01-10T10:24:39;-0.20;99.90
20654;DHT22;21083;50.898;4.902;2024-01-10T10:27:08;-0.10;99.90
20654;DHT22;21083;50.898;4.902;2024-01-10T10:29:37;0.10;99.90
20654;DHT22;21083;50.898;4.902;2024-01-10T10:32:05;0.30;99.90
20654;DHT22;21083;50.898;4.902;2024-01-10T10:34:34;0.50;99.90
20654;DHT22;21083;50.898;4.902;2024-01-10T10:37:01;0.70;99.90
20654;DHT22;21083;50.898;4.902;2024-01-10T10:39:28;0.90;99.90
20654;DHT22;21083;50.898;4.902;2024-01-10T10:41:56;1.30;99.90
20654;DHT22;21083;50.898;4.902;2024-01-10T10:44:24;1.70;99.90
20654;DHT22;21083;50.898;4.902;2024-01-10T10:46:53;2.20;99.90
20654;DHT22;21083;50.898;4.902;2024-01-10T10:49:26;2.60;99.90
20654;DHT22;21083;50.898;4.902;2024-01-10T10:51:57;3.00;99.90
20654;DHT22;21083;50.898;4.902;2024-01-10T10:54:26;3.40;99.90
20654;DHT22;21083;50.898;4.902;2024-01-10T10:56:56;3.70;99.90
20654;DHT22;21083;50.898;4.902;2024-01-10T10:59:26;4.10;99.90
20654;DHT22;21083;50.898;4.902;2024-01-10T11:01:56;4.40;99.90
20654;DHT22;21083;50.898;4.902;2024-01-10T11:04:23;4.80;99.90
20654;DHT22;21083;50.898;4.902;2024-01-10T11:06:51;5.20;99.90
20654;DHT22;21083;50.898;4.902;2024-01-10T11:09:18;5.40;99.90
20654;DHT22;21083;50.898;4.902;2024-01-10T11:12:04;5.60;99.90
20654;DHT22;21083;50.898;4.902;2024-01-10T11:14:46;5.60;99.90
20654;DHT22;21083;50.898;4.902;2024-01-10T11:20:30;6.40;99.90
20654;DHT22;21083;50.898;4.902;2024-01-10T11:23:33;6.50;99.90
20654;DHT22;21083;50.898;4.902;2024-01-10T11:26:03;6.30;99.90
20654;DHT22;21083;50.898;4.902;2024-01-10T11:28:30;6.50;99.90
20654;DHT22;21083;50.898;4.902;2024-01-10T11:30:59;6.70;99.90
20654;DHT22;21083;50.898;4.902;2024-01-10T11:33:32;6.80;99.90
20654;DHT22;21083;50.898;4.902;2024-01-10T11:36:11;6.60;99.90
20654;DHT22;21083;50.898;4.902;2024-01-10T11:38:42;6.80;99.90
20654;DHT22;21083;50.898;4.902;2024-01-10T11:41:19;7.20;99.90
20654;DHT22;21083;50.898;4.902;2024-01-10T11:43:46;7.50;99.90
20654;DHT22;21083;50.898;4.902;2024-01-10T11:46:33;7.70;99.90
20654;DHT22;21083;50.898;4.902;2024-01-10T11:49:02;7.50;99.90
20654;DHT22;21083;50.898;4.902;2024-01-10T11:51:29;7.60;99.90
20654;DHT22;21083;50.898;4.902;2024-01-10T11:53:56;7.80;99.90
20654;DHT22;21083;50.898;4.902;2024-01-10T11:56:38;8.20;99.90
20654;DHT22;21083;50.898;4.902;2024-01-10T11:59:08;8.70;99.90
20654;DHT22;21083;50.898;4.902;2024-01-10T12:01:37;9.10;99.90
20654;DHT22;21083;50.898;4.902;2024-01-10T12:04:06;9.30;99.90
20654;DHT22;21083;50.898;4.902;2024-01-10T12:06:35;9.20;99.90
20654;DHT22;21083;50.898;4.902;2024-01-10T12:09:03;9.50;99.90
20654;DHT22;21083;50.898;4.902;2024-01-10T12:11:31;9.60;99.90
20654;DHT22;21083;50.898;4.902;2024-01-10T12:13:58;9.50;99.90
20654;DHT22;21083;50.898;4.902;2024-01-10T12:16:25;9.20;99.90
20654;DHT22;21083;50.898;4.902;2024-01-10T12:18:52;8.90;99.90
20654;DHT22;21083;50.898;4.902;2024-01-10T12:21:20;8.70;99.90
20654;DHT22;21083;50.898;4.902;2024-01-10T12:23:47;8.60;99.90
20654;DHT22;21083;50.898;4.902;2024-01-10T12:26:14;8.90;99.90
20654;DHT22;21083;50.898;4.902;2024-01-10T12:28:53;9.30;99.90
20654;DHT22;21083;50.898;4.902;2024-01-10T12:31:21;9.50;99.90
20654;DHT22;21083;50.898;4.902;2024-01-10T12:33:49;9.10;99.90
20654;DHT22;21083;50.898;4.902;2024-01-10T12:36:17;9.10;99.90
20654;DHT22;21083;50.898;4.902;2024-01-10T12:38:47;9.50;99.90
20654;DHT22;21083;50.898;4.902;2024-01-10T12:41:15;10.00;99.90
20654;DHT22;21083;50.898;4.902;2024-01-10T12:43:42;10.20;99.90
20654;DHT22;21083;50.898;4.902;2024-01-10T12:46:11;10.30;99.90
20654;DHT22;21083;50.898;4.902;2024-01-10T12:48:38;10.30;99.90
20654;DHT22;21083;50.898;4.902;2024-01-10T12:51:07;10.40;99.90
20654;DHT22;21083;50.898;4.902;2024-01-10T12:53:34;10.90;99.90
20654;DHT22;21083;50.898;4.902;2024-01-10T12:56:04;10.60;99.90
20654;DHT22;21083;50.898;4.902;2024-01-10T12:58:31;10.60;99.90
20654;DHT22;21083;50.898;4.902;2024-01-10T13:00:58;11.30;99.90
20654;DHT22;21083;50.898;4.902;2024-01-10T13:03:25;11.60;99.90
20654;DHT22;21083;50.898;4.902;2024-01-10T13:05:52;11.50;99.90
20654;DHT22;21083;50.898;4.902;2024-01-10T13:08:19;11.10;99.90
20654;DHT22;21083;50.898;4.902;2024-01-10T13:10:47;11.20;99.90
20654;DHT22;21083;50.898;4.902;2024-01-10T13:13:16;11.80;99.90
20654;DHT22;21083;50.898;4.902;2024-01-10T13:15:44;13.00;99.90
20654;DHT22;21083;50.898;4.902;2024-01-10T13:18:11;13.60;99.90
20654;DHT22;21083;50.898;4.902;2024-01-10T13:20:39;13.80;99.90
20654;DHT22;21083;50.898;4.902;2024-01-10T13:23:06;13.90;99.90
20654;DHT22;21083;50.898;4.902;2024-01-10T13:25:33;14.20;99.90
20654;DHT22;21083;50.898;4.902;2024-01-10T13:28:00;14.50;99.90
20654;DHT22;21083;50.898;4.902;2024-01-10T13:30:29;14.90;99.90
20654;DHT22;21083;50.898;4.902;2024-01-10T13:32:56;14.80;99.30
20654;DHT22;21083;50.898;4.902;2024-01-10T13:35:24;14.90;98.90
20654;DHT22;21083;50.898;4.902;2024-01-10T13:37:51;15.20;97.70
20654;DHT22;21083;50.898;4.902;2024-01-10T13:40:18;15.00;97.80
20654;DHT22;21083;50.898;4.902;2024-01-10T13:42:49;15.00;96.90
20654;DHT22;21083;50.898;4.902;2024-01-10T13:45:17;14.90;97.70
20654;DHT22;21083;50.898;4.902;2024-01-10T13:47:45;14.90;97.40
20654;DHT22;21083;50.898;4.902;2024-01-10T13:50:12;15.00;96.90
20654;DHT22;21083;50.898;4.902;2024-01-10T13:52:39;15.60;96.00
20654;DHT22;21083;50.898;4.902;2024-01-10T13:55:07;15.80;96.00
20654;DHT22;21083;50.898;4.902;2024-01-10T13:57:35;16.10;94.30
20654;DHT22;21083;50.898;4.902;2024-01-10T14:00:02;16.40;93.30
20654;DHT22;21083;50.898;4.902;2024-01-10T14:02:32;16.40;93.30
20654;DHT22;21083;50.898;4.902;2024-01-10T14:05:03;16.60;93.50
20654;DHT22;21083;50.898;4.902;2024-01-10T14:07:32;16.70;92.90
20654;DHT22;21083;50.898;4.902;2024-01-10T14:10:00;16.50;92.10
20654;DHT22;21083;50.898;4.902;2024-01-10T14:12:27;16.70;92.00
20654;DHT22;21083;50.898;4.902;2024-01-10T14:14:55;16.80;92.90
20654;DHT22;21083;50.898;4.902;2024-01-10T14:17:22;16.50;92.30
20654;DHT22;21083;50.898;4.902;2024-01-10T14:19:51;16.60;91.90
20654;DHT22;21083;50.898;4.902;2024-01-10T14:22:19;16.00;91.30
20654;DHT22;21083;50.898;4.902;2024-01-10T14:24:46;15.90;92.00
20654;DHT22;21083;50.898;4.902;2024-01-10T14:27:13;15.80;92.50
20654;DHT22;21083;50.898;4.902;2024-01-10T14:29:40;15.40;91.80
20654;DHT22;21083;50.898;4.902;2024-01-10T14:32:07;15.20;92.40
20654;DHT22;21083;50.898;4.902;2024-01-10T14:34:34;15.00;92.60
20654;DHT22;21083;50.898;4.902;2024-01-10T14:37:01;15.20;92.70
20654;DHT22;21083;50.898;4.902;2024-01-10T14:39:29;15.10;92.40
20654;DHT22;21083;50.898;4.902;2024-01-10T14:41:56;15.20;93.20
20654;DHT22;21083;50.898;4.902;2024-01-10T14:44:23;15.30;92.00
20654;DHT22;21083;50.898;4.902;2024-01-10T14:46:50;15.40;92.20
20654;DHT22;21083;50.898;4.902;2024-01-10T14:49:17;15.40;91.60
20654;DHT22;21083;50.898;4.902;2024-01-10T14:51:44;15.10;92.70
20654;DHT22;21083;50.898;4.902;2024-01-10T14:54:12;15.10;92.60
20654;DHT22;21083;50.898;4.902;2024-01-10T14:56:41;15.10;92.40
20654;DHT22;21083;50.898;4.902;2024-01-10T14:59:10;14.90;91.50
20654;DHT22;21083;50.898;4.902;2024-01-10T15:01:37;14.60;92.40
20654;DHT22;21083;50.898;4.902;2024-01-10T15:04:04;14.30;92.70
20654;DHT22;21083;50.898;4.902;2024-01-10T15:06:31;14.20;92.90
20654;DHT22;21083;50.898;4.902;2024-01-10T15:08:58;14.20;92.30
20654;DHT22;21083;50.898;4.902;2024-01-10T15:11:25;13.90;92.50
20654;DHT22;21083;50.898;4.902;2024-01-10T15:13:54;13.60;93.30
20654;DHT22;21083;50.898;4.902;2024-01-10T15:16:22;13.30;93.30
20654;DHT22;21083;50.898;4.902;2024-01-10T15:18:49;12.90;93.30
20654;DHT22;21083;50.898;4.902;2024-01-10T15:21:17;11.70;95.70
20654;DHT22;21083;50.898;4.902;2024-01-10T15:23:45;10.40;97.00
20654;DHT22;21083;50.898;4.902;2024-01-10T15:26:15;9.30;97.80
20654;DHT22;21083;50.898;4.902;2024-01-10T15:28:43;8.40;99.20
20654;DHT22;21083;50.898;4.902;2024-01-10T15:31:15;7.60;99.90
20654;DHT22;21083;50.898;4.902;2024-01-10T15:33:42;7.00;99.90
20654;DHT22;21083;50.898;4.902;2024-01-10T15:36:09;6.50;99.90
20654;DHT22;21083;50.898;4.902;2024-01-10T15:38:36;5.90;99.90
20654;DHT22;21083;50.898;4.902;2024-01-10T15:41:06;5.40;99.90
20654;DHT22;21083;50.898;4.902;2024-01-10T15:43:34;5.00;99.90